SDM6573 ULLI-UNKL
Flight info
| Callsign | SDM6573 |
|---|---|
| Flight time | N/A |
| Altitude | 37000 |
| Route | ULLI/28R KERIS P989 DIKEP L870 TUNAL/K0837F390 L870 HMN B228 TODES R497 KUMOD N869 KELOK B115 RANET RANET2S |
| Aircraft | A320/M-SDE2E3FGHIRWXY/LB1 |
Departure
| Time | N/A |
|---|---|
| Airport | Pulkovo Airport (ULLI) |
Arrival
| Time | 2026-04-27 21:51 |
|---|---|
| Airport | Krasnoyarsk International Airport (UNKL) |
| Time | Latitude | Longitude | Altitude | Speed | Heading |
|---|---|---|---|---|---|
| 2026-04-27 18:33 | 61.34362 | 47.63739 | 36544 ft | 449 kts | 77° |
| 2026-04-27 18:34 | 61.36168 | 47.82872 | 36544 ft | 449 kts | 76° |
| 2026-04-27 18:34 | 61.38090 | 48.01052 | 36544 ft | 449 kts | 76° |
| 2026-04-27 18:35 | 61.39417 | 48.13744 | 36544 ft | 449 kts | 76° |
| 2026-04-27 18:35 | 61.40723 | 48.26438 | 36544 ft | 449 kts | 76° |
| 2026-04-27 18:36 | 61.42025 | 48.39230 | 36544 ft | 449 kts | 76° |
| 2026-04-27 18:36 | 61.43309 | 48.51975 | 36545 ft | 449 kts | 76° |
| 2026-04-27 18:37 | 61.44574 | 48.64666 | 36544 ft | 449 kts | 76° |
| 2026-04-27 18:37 | 61.45837 | 48.77489 | 36544 ft | 450 kts | 77° |
| 2026-04-27 18:38 | 61.47077 | 48.90205 | 36544 ft | 450 kts | 77° |
| 2026-04-27 18:38 | 61.48315 | 49.03020 | 36544 ft | 449 kts | 76° |
| 2026-04-27 18:39 | 61.49541 | 49.15828 | 36545 ft | 448 kts | 76° |
| 2026-04-27 18:39 | 61.50747 | 49.28550 | 36544 ft | 448 kts | 76° |
| 2026-04-27 18:40 | 61.51946 | 49.41336 | 36544 ft | 447 kts | 76° |
| 2026-04-27 18:40 | 61.53140 | 49.54108 | 36544 ft | 447 kts | 76° |
| 2026-04-27 18:41 | 61.54326 | 49.66884 | 36544 ft | 447 kts | 77° |
| 2026-04-27 18:41 | 61.55496 | 49.79655 | 36544 ft | 448 kts | 77° |
| 2026-04-27 18:42 | 61.56461 | 49.90284 | 36544 ft | 448 kts | 77° |
| 2026-04-27 18:42 | 61.57803 | 50.05206 | 36544 ft | 448 kts | 77° |
| 2026-04-27 18:43 | 61.58941 | 50.18014 | 36544 ft | 447 kts | 77° |
| 2026-04-27 18:43 | 61.60073 | 50.30880 | 36544 ft | 447 kts | 77° |
| 2026-04-27 18:44 | 61.61185 | 50.43657 | 36544 ft | 448 kts | 77° |
| 2026-04-27 18:44 | 61.62289 | 50.56467 | 36544 ft | 447 kts | 77° |
| 2026-04-27 18:45 | 61.63383 | 50.69348 | 36544 ft | 447 kts | 77° |
| 2026-04-27 18:45 | 61.64495 | 50.82199 | 36544 ft | 447 kts | 76° |
| 2026-04-27 18:46 | 61.66038 | 50.94772 | 36545 ft | 446 kts | 72° |
| 2026-04-27 18:46 | 61.67759 | 51.07272 | 36544 ft | 446 kts | 72° |
| 2026-04-27 18:47 | 61.69476 | 51.19826 | 36544 ft | 446 kts | 72° |
| 2026-04-27 18:47 | 61.71167 | 51.32314 | 36544 ft | 446 kts | 72° |
| 2026-04-27 18:48 | 61.72858 | 51.44910 | 36544 ft | 446 kts | 72° |
| 2026-04-27 18:48 | 61.74535 | 51.57492 | 36544 ft | 446 kts | 72° |
| 2026-04-27 18:49 | 61.76191 | 51.70019 | 36544 ft | 446 kts | 73° |
| 2026-04-27 18:49 | 61.77848 | 51.82667 | 36545 ft | 446 kts | 73° |
| 2026-04-27 18:50 | 61.79481 | 51.95209 | 36544 ft | 446 kts | 73° |
| 2026-04-27 18:50 | 61.81109 | 52.07816 | 36544 ft | 446 kts | 73° |
| 2026-04-27 18:51 | 61.82622 | 52.20603 | 36543 ft | 447 kts | 77° |
| 2026-04-27 18:51 | 61.83502 | 52.33562 | 36543 ft | 448 kts | 83° |
| 2026-04-27 18:52 | 61.83703 | 52.46738 | 36543 ft | 450 kts | 89° |
| 2026-04-27 18:53 | 61.83418 | 52.66599 | 36543 ft | 450 kts | 90° |
| 2026-04-27 18:53 | 61.83208 | 52.79797 | 36544 ft | 451 kts | 90° |
| 2026-04-27 18:54 | 61.82987 | 52.92991 | 36544 ft | 450 kts | 90° |
| 2026-04-27 18:54 | 61.82755 | 53.06168 | 36545 ft | 449 kts | 90° |
| 2026-04-27 18:55 | 61.82515 | 53.19373 | 36544 ft | 449 kts | 89° |
| 2026-04-27 18:55 | 61.82259 | 53.32554 | 36544 ft | 449 kts | 90° |
| 2026-04-27 18:56 | 61.81985 | 53.45718 | 36544 ft | 449 kts | 90° |
| 2026-04-27 18:56 | 61.81700 | 53.58836 | 36544 ft | 449 kts | 90° |
| 2026-04-27 18:57 | 61.81406 | 53.72033 | 36544 ft | 449 kts | 90° |
| 2026-04-27 18:57 | 61.81101 | 53.85245 | 36544 ft | 450 kts | 90° |
| 2026-04-27 18:58 | 61.80786 | 53.98360 | 36545 ft | 449 kts | 90° |
| 2026-04-27 18:58 | 61.80460 | 54.11508 | 36544 ft | 449 kts | 90° |
| 2026-04-27 18:59 | 61.80119 | 54.24706 | 36544 ft | 450 kts | 90° |
| 2026-04-27 18:59 | 61.79768 | 54.37865 | 36544 ft | 449 kts | 90° |
| 2026-04-27 19:00 | 61.79406 | 54.50986 | 36544 ft | 449 kts | 90° |
| 2026-04-27 19:00 | 61.79029 | 54.64206 | 36544 ft | 450 kts | 90° |
| 2026-04-27 19:01 | 61.78639 | 54.77376 | 36546 ft | 450 kts | 91° |
| 2026-04-27 19:01 | 61.78259 | 54.90466 | 36581 ft | 450 kts | 91° |
| 2026-04-27 19:02 | 61.77873 | 55.03624 | 36653 ft | 449 kts | 91° |
| 2026-04-27 19:02 | 61.77477 | 55.16799 | 36712 ft | 448 kts | 91° |
| 2026-04-27 19:03 | 61.77069 | 55.29883 | 36744 ft | 447 kts | 91° |
| 2026-04-27 19:03 | 61.76648 | 55.42927 | 36758 ft | 447 kts | 91° |
| 2026-04-27 19:04 | 61.76215 | 55.55998 | 36763 ft | 447 kts | 91° |
| 2026-04-27 19:04 | 61.75771 | 55.69049 | 36765 ft | 447 kts | 92° |
| 2026-04-27 19:05 | 61.75315 | 55.82072 | 36765 ft | 447 kts | 92° |
| 2026-04-27 19:05 | 61.74845 | 55.95181 | 36765 ft | 447 kts | 92° |
| 2026-04-27 19:06 | 61.74364 | 56.08205 | 36765 ft | 447 kts | 92° |
| 2026-04-27 19:06 | 61.73871 | 56.21241 | 36765 ft | 447 kts | 92° |
| 2026-04-27 19:07 | 61.73365 | 56.34260 | 36765 ft | 447 kts | 92° |
| 2026-04-27 19:07 | 61.72844 | 56.47340 | 36765 ft | 447 kts | 92° |
| 2026-04-27 19:08 | 61.72312 | 56.60404 | 36765 ft | 447 kts | 92° |
| 2026-04-27 19:08 | 61.71769 | 56.73435 | 36783 ft | 448 kts | 93° |
| 2026-04-27 19:09 | 61.71211 | 56.86518 | 36805 ft | 447 kts | 93° |
| 2026-04-27 19:09 | 61.70645 | 56.99597 | 36815 ft | 448 kts | 94° |
| 2026-04-27 19:10 | 61.70066 | 57.12681 | 36817 ft | 450 kts | 95° |
| 2026-04-27 19:10 | 61.69461 | 57.25880 | 36820 ft | 452 kts | 95° |
| 2026-04-27 19:11 | 61.68843 | 57.39072 | 36820 ft | 452 kts | 95° |
| 2026-04-27 19:11 | 61.68215 | 57.52255 | 36820 ft | 452 kts | 95° |
| 2026-04-27 19:12 | 61.67577 | 57.65396 | 36820 ft | 452 kts | 96° |
| 2026-04-27 19:12 | 61.66927 | 57.78577 | 36820 ft | 452 kts | 96° |
| 2026-04-27 19:13 | 61.66264 | 57.91728 | 36820 ft | 452 kts | 96° |
| 2026-04-27 19:13 | 61.65589 | 58.04889 | 36820 ft | 452 kts | 96° |
| 2026-04-27 19:14 | 61.64901 | 58.18051 | 36820 ft | 452 kts | 96° |
| 2026-04-27 19:14 | 61.64201 | 58.31223 | 36820 ft | 452 kts | 96° |
| 2026-04-27 19:15 | 61.63483 | 58.44403 | 36820 ft | 452 kts | 96° |
| 2026-04-27 19:15 | 61.62812 | 58.57536 | 36820 ft | 452 kts | 95° |
| 2026-04-27 19:16 | 61.62174 | 58.70716 | 36820 ft | 452 kts | 96° |
| 2026-04-27 19:16 | 61.61527 | 58.83841 | 36820 ft | 452 kts | 96° |
| 2026-04-27 19:17 | 61.60864 | 58.97030 | 36819 ft | 453 kts | 96° |
| 2026-04-27 19:17 | 61.60182 | 59.10216 | 36820 ft | 455 kts | 97° |
| 2026-04-27 19:18 | 61.59481 | 59.23446 | 36820 ft | 456 kts | 96° |
| 2026-04-27 19:18 | 61.58766 | 59.36747 | 36820 ft | 456 kts | 96° |
| 2026-04-27 19:19 | 61.58047 | 59.49906 | 36820 ft | 456 kts | 96° |
| 2026-04-27 19:19 | 61.57310 | 59.63165 | 36820 ft | 456 kts | 96° |
| 2026-04-27 19:20 | 61.56563 | 59.76404 | 36820 ft | 456 kts | 97° |
| 2026-04-27 19:20 | 61.55807 | 59.89568 | 36820 ft | 456 kts | 97° |
| 2026-04-27 19:21 | 61.55028 | 60.02821 | 36820 ft | 456 kts | 97° |
| 2026-04-27 19:21 | 61.54241 | 60.16004 | 36820 ft | 456 kts | 97° |
| 2026-04-27 19:22 | 61.53444 | 60.29217 | 36820 ft | 456 kts | 97° |
| 2026-04-27 19:22 | 61.52636 | 60.42430 | 36820 ft | 456 kts | 97° |
| 2026-04-27 19:23 | 61.51820 | 60.55558 | 36820 ft | 456 kts | 97° |
| 2026-04-27 19:23 | 61.50987 | 60.68758 | 36864 ft | 456 kts | 98° |
| 2026-04-27 19:24 | 61.50150 | 60.81858 | 36947 ft | 456 kts | 98° |
| 2026-04-27 19:24 | 61.49301 | 60.94945 | 36988 ft | 456 kts | 98° |
| 2026-04-27 19:25 | 61.48436 | 61.08086 | 37004 ft | 455 kts | 98° |
| 2026-04-27 19:25 | 61.47562 | 61.21126 | 37009 ft | 456 kts | 99° |
| 2026-04-27 19:26 | 61.46667 | 61.34276 | 37011 ft | 456 kts | 99° |
| 2026-04-27 19:26 | 61.45771 | 61.47316 | 37011 ft | 456 kts | 99° |
| 2026-04-27 19:27 | 61.44862 | 61.60405 | 37011 ft | 456 kts | 99° |
| 2026-04-27 19:27 | 61.43940 | 61.73505 | 37011 ft | 456 kts | 100° |
| 2026-04-27 19:28 | 61.43006 | 61.86607 | 37011 ft | 456 kts | 100° |
| 2026-04-27 19:28 | 61.42063 | 61.99646 | 37011 ft | 456 kts | 100° |
| 2026-04-27 19:29 | 61.41107 | 62.12678 | 37011 ft | 456 kts | 100° |
| 2026-04-27 19:29 | 61.40137 | 62.25733 | 37011 ft | 456 kts | 100° |
| 2026-04-27 19:30 | 61.39153 | 62.38802 | 37011 ft | 456 kts | 100° |
| 2026-04-27 19:30 | 61.38162 | 62.51800 | 37021 ft | 456 kts | 100° |
| 2026-04-27 19:31 | 61.37149 | 62.64855 | 37062 ft | 456 kts | 100° |
| 2026-04-27 19:31 | 61.36136 | 62.77883 | 37110 ft | 456 kts | 101° |
| 2026-04-27 19:32 | 61.35126 | 62.90830 | 37134 ft | 456 kts | 101° |
| 2026-04-27 19:32 | 61.34101 | 63.03872 | 37144 ft | 456 kts | 101° |
| 2026-04-27 19:33 | 61.33063 | 63.16870 | 37147 ft | 458 kts | 102° |
| 2026-04-27 19:33 | 61.32003 | 63.29921 | 37148 ft | 458 kts | 102° |
| 2026-04-27 19:34 | 61.30935 | 63.42934 | 37149 ft | 458 kts | 102° |
| 2026-04-27 19:34 | 61.29854 | 63.55937 | 37149 ft | 458 kts | 102° |
| 2026-04-27 19:35 | 61.28943 | 63.69078 | 37148 ft | 460 kts | 98° |
| 2026-04-27 19:35 | 61.28522 | 63.82336 | 37148 ft | 460 kts | 96° |
| 2026-04-27 19:36 | 61.28142 | 63.95589 | 37148 ft | 460 kts | 96° |
| 2026-04-27 19:36 | 61.27745 | 64.08838 | 37148 ft | 460 kts | 96° |
| 2026-04-27 19:37 | 61.27333 | 64.22017 | 37148 ft | 460 kts | 96° |
| 2026-04-27 19:37 | 61.26907 | 64.35270 | 37149 ft | 460 kts | 96° |
| 2026-04-27 19:38 | 61.26466 | 64.48440 | 37149 ft | 460 kts | 96° |
| 2026-04-27 19:38 | 61.26016 | 64.61741 | 37149 ft | 460 kts | 96° |
| 2026-04-27 19:39 | 61.25568 | 64.74948 | 37148 ft | 460 kts | 96° |
| 2026-04-27 19:39 | 61.25109 | 64.88197 | 37148 ft | 460 kts | 97° |
| 2026-04-27 19:40 | 61.24643 | 65.01346 | 37148 ft | 460 kts | 98° |
| 2026-04-27 19:40 | 61.24155 | 65.14556 | 37148 ft | 460 kts | 98° |
| 2026-04-27 19:41 | 61.23651 | 65.27764 | 37149 ft | 460 kts | 98° |
| 2026-04-27 19:41 | 61.23136 | 65.40955 | 37149 ft | 460 kts | 98° |
| 2026-04-27 19:42 | 61.22607 | 65.54236 | 37149 ft | 460 kts | 98° |
| 2026-04-27 19:42 | 61.22070 | 65.67377 | 37149 ft | 460 kts | 99° |
| 2026-04-27 19:43 | 61.21522 | 65.80543 | 37148 ft | 460 kts | 99° |
| 2026-04-27 19:43 | 61.20961 | 65.93691 | 37148 ft | 460 kts | 99° |
| 2026-04-27 19:44 | 61.20383 | 66.06889 | 37148 ft | 459 kts | 99° |
| 2026-04-27 19:44 | 61.19795 | 66.20024 | 37148 ft | 459 kts | 99° |
| 2026-04-27 19:45 | 61.19194 | 66.33167 | 37148 ft | 460 kts | 99° |
| 2026-04-27 19:45 | 61.18579 | 66.46328 | 37149 ft | 460 kts | 99° |
| 2026-04-27 19:46 | 61.17948 | 66.59547 | 37149 ft | 459 kts | 99° |
| 2026-04-27 19:46 | 61.17312 | 66.72636 | 37149 ft | 459 kts | 99° |
| 2026-04-27 19:47 | 61.16660 | 66.85792 | 37148 ft | 459 kts | 99° |
| 2026-04-27 19:47 | 61.15998 | 66.98874 | 37148 ft | 459 kts | 100° |
| 2026-04-27 19:48 | 61.15328 | 67.11960 | 37148 ft | 458 kts | 101° |
| 2026-04-27 19:48 | 61.14191 | 67.24843 | 37151 ft | 450 kts | 111° |
| 2026-04-27 19:49 | 61.12381 | 67.37174 | 37149 ft | 450 kts | 112° |
| 2026-04-27 19:49 | 61.10549 | 67.49496 | 37149 ft | 450 kts | 111° |
| 2026-04-27 19:50 | 61.08722 | 67.61864 | 37149 ft | 450 kts | 111° |
| 2026-04-27 19:50 | 61.06912 | 67.74132 | 37148 ft | 449 kts | 112° |
| 2026-04-27 19:51 | 61.05085 | 67.86467 | 37149 ft | 449 kts | 112° |
| 2026-04-27 19:51 | 61.03254 | 67.98726 | 37148 ft | 449 kts | 112° |
| 2026-04-27 19:52 | 61.01408 | 68.10991 | 37149 ft | 449 kts | 112° |
| 2026-04-27 19:52 | 60.99546 | 68.23277 | 37148 ft | 449 kts | 112° |
| 2026-04-27 19:53 | 60.96733 | 68.41665 | 37148 ft | 449 kts | 112° |
| 2026-04-27 19:53 | 60.94857 | 68.53818 | 37149 ft | 449 kts | 112° |
| 2026-04-27 19:54 | 60.92947 | 68.66110 | 37149 ft | 450 kts | 113° |
| 2026-04-27 19:54 | 60.91054 | 68.78234 | 37148 ft | 449 kts | 113° |
| 2026-04-27 19:55 | 60.89121 | 68.90479 | 37149 ft | 449 kts | 113° |
| 2026-04-27 19:55 | 60.87169 | 69.02628 | 37148 ft | 450 kts | 113° |
| 2026-04-27 19:56 | 60.85214 | 69.14786 | 37148 ft | 450 kts | 114° |
| 2026-04-27 19:56 | 60.83258 | 69.26911 | 37148 ft | 451 kts | 113° |
| 2026-04-27 19:57 | 60.81283 | 69.39097 | 37148 ft | 451 kts | 113° |
| 2026-04-27 19:57 | 60.79301 | 69.51248 | 37148 ft | 451 kts | 113° |
| 2026-04-27 19:58 | 60.77316 | 69.63343 | 37148 ft | 451 kts | 113° |
| 2026-04-27 19:58 | 60.75313 | 69.75488 | 37148 ft | 450 kts | 114° |
| 2026-04-27 19:59 | 60.73312 | 69.87551 | 37148 ft | 450 kts | 114° |
| 2026-04-27 19:59 | 60.71299 | 69.99585 | 37148 ft | 450 kts | 114° |
| 2026-04-27 20:00 | 60.69261 | 70.11684 | 37148 ft | 450 kts | 114° |
| 2026-04-27 20:00 | 60.67229 | 70.23675 | 37148 ft | 450 kts | 114° |
| 2026-04-27 20:01 | 60.65179 | 70.35702 | 37148 ft | 450 kts | 114° |
| 2026-04-27 20:01 | 60.63117 | 70.47698 | 37148 ft | 450 kts | 114° |
| 2026-04-27 20:02 | 60.61130 | 70.59749 | 37148 ft | 451 kts | 113° |
| 2026-04-27 20:02 | 60.59170 | 70.71878 | 37148 ft | 450 kts | 114° |
| 2026-04-27 20:03 | 60.57211 | 70.83933 | 37147 ft | 450 kts | 114° |
| 2026-04-27 20:03 | 60.55231 | 70.95976 | 37147 ft | 453 kts | 114° |
| 2026-04-27 20:04 | 60.53225 | 71.08083 | 37148 ft | 456 kts | 114° |
| 2026-04-27 20:04 | 60.51183 | 71.20336 | 37148 ft | 457 kts | 114° |
| 2026-04-27 20:05 | 60.49153 | 71.32438 | 37148 ft | 457 kts | 114° |
| 2026-04-27 20:05 | 60.47095 | 71.44614 | 37153 ft | 457 kts | 114° |
| 2026-04-27 20:06 | 60.45033 | 71.56731 | 37163 ft | 457 kts | 114° |
| 2026-04-27 20:06 | 60.42955 | 71.68869 | 37170 ft | 457 kts | 114° |
| 2026-04-27 20:07 | 60.40874 | 71.80977 | 37173 ft | 456 kts | 114° |
| 2026-04-27 20:07 | 60.38782 | 71.93050 | 37174 ft | 456 kts | 114° |
| 2026-04-27 20:08 | 60.36669 | 72.05153 | 37175 ft | 456 kts | 114° |
| 2026-04-27 20:08 | 60.34549 | 72.17213 | 37174 ft | 457 kts | 114° |
| 2026-04-27 20:09 | 60.32418 | 72.29257 | 37175 ft | 457 kts | 114° |
| 2026-04-27 20:09 | 60.30274 | 72.41297 | 37175 ft | 457 kts | 114° |
| 2026-04-27 20:10 | 60.28126 | 72.53281 | 37175 ft | 457 kts | 114° |
| 2026-04-27 20:10 | 60.25964 | 72.65268 | 37175 ft | 457 kts | 115° |
| 2026-04-27 20:11 | 60.23795 | 72.77251 | 37175 ft | 456 kts | 115° |
| 2026-04-27 20:11 | 60.21613 | 72.89223 | 37175 ft | 456 kts | 115° |
| 2026-04-27 20:12 | 60.19786 | 72.99178 | 37175 ft | 456 kts | 115° |
| 2026-04-27 20:12 | 60.17218 | 73.13052 | 37175 ft | 456 kts | 115° |
| 2026-04-27 20:13 | 60.15008 | 73.24921 | 37175 ft | 455 kts | 114° |
| 2026-04-27 20:13 | 60.12793 | 73.36772 | 37175 ft | 455 kts | 114° |
| 2026-04-27 20:14 | 60.10556 | 73.48654 | 37175 ft | 455 kts | 114° |
| 2026-04-27 20:14 | 60.08326 | 73.60429 | 37175 ft | 455 kts | 114° |
| 2026-04-27 20:15 | 60.06078 | 73.72231 | 37175 ft | 455 kts | 115° |
| 2026-04-27 20:15 | 60.03814 | 73.84064 | 37174 ft | 455 kts | 115° |
| 2026-04-27 20:16 | 60.01558 | 73.95768 | 37174 ft | 455 kts | 115° |
| 2026-04-27 20:16 | 59.99273 | 74.07546 | 37175 ft | 455 kts | 115° |
| 2026-04-27 20:17 | 59.96980 | 74.19291 | 37175 ft | 454 kts | 115° |
| 2026-04-27 20:17 | 59.95073 | 74.29001 | 37175 ft | 454 kts | 115° |
| 2026-04-27 20:18 | 59.92366 | 74.42711 | 37175 ft | 454 kts | 115° |
| 2026-04-27 20:18 | 59.90055 | 74.54337 | 37176 ft | 454 kts | 115° |
| 2026-04-27 20:19 | 59.87695 | 74.66029 | 37175 ft | 454 kts | 116° |
| 2026-04-27 20:19 | 59.85353 | 74.77622 | 37175 ft | 454 kts | 116° |
| 2026-04-27 20:20 | 59.83010 | 74.89215 | 37175 ft | 454 kts | 116° |
| 2026-04-27 20:20 | 59.80644 | 75.00866 | 37175 ft | 453 kts | 116° |
| 2026-04-27 20:21 | 59.78294 | 75.12376 | 37175 ft | 451 kts | 116° |
| 2026-04-27 20:21 | 59.75939 | 75.23846 | 37174 ft | 451 kts | 115° |
| 2026-04-27 20:22 | 59.73901 | 75.35623 | 37175 ft | 453 kts | 110° |
| 2026-04-27 20:22 | 59.72098 | 75.47549 | 37174 ft | 454 kts | 110° |
| 2026-04-27 20:23 | 59.70290 | 75.59464 | 37175 ft | 454 kts | 110° |
| 2026-04-27 20:23 | 59.68467 | 75.71404 | 37174 ft | 453 kts | 111° |
| 2026-04-27 20:24 | 59.66647 | 75.83257 | 37175 ft | 453 kts | 111° |
| 2026-04-27 20:24 | 59.64805 | 75.95146 | 37175 ft | 453 kts | 111° |
| 2026-04-27 20:25 | 59.62949 | 76.07039 | 37174 ft | 454 kts | 111° |
| 2026-04-27 20:25 | 59.61084 | 76.18907 | 37175 ft | 454 kts | 111° |
| 2026-04-27 20:26 | 59.59205 | 76.30797 | 37175 ft | 454 kts | 111° |
| 2026-04-27 20:26 | 59.57323 | 76.42609 | 37174 ft | 454 kts | 111° |
| 2026-04-27 20:27 | 59.55409 | 76.54471 | 37175 ft | 453 kts | 111° |
| 2026-04-27 20:27 | 59.53471 | 76.66270 | 37174 ft | 453 kts | 112° |
| 2026-04-27 20:28 | 59.51532 | 76.78057 | 37174 ft | 453 kts | 112° |
| 2026-04-27 20:28 | 59.49912 | 76.87839 | 37174 ft | 454 kts | 112° |
| 2026-04-27 20:29 | 59.47619 | 77.01572 | 37173 ft | 456 kts | 111° |
| 2026-04-27 20:29 | 59.45641 | 77.13475 | 37175 ft | 458 kts | 111° |
| 2026-04-27 20:30 | 59.43669 | 77.25304 | 37175 ft | 458 kts | 111° |
| 2026-04-27 20:30 | 59.41677 | 77.37170 | 37175 ft | 458 kts | 111° |
| 2026-04-27 20:31 | 59.39688 | 77.48932 | 37175 ft | 458 kts | 111° |
| 2026-04-27 20:31 | 59.37674 | 77.60767 | 37174 ft | 458 kts | 111° |
| 2026-04-27 20:32 | 59.35643 | 77.72637 | 37175 ft | 458 kts | 112° |
| 2026-04-27 20:32 | 59.33621 | 77.84400 | 37175 ft | 457 kts | 112° |
| 2026-04-27 20:33 | 59.31578 | 77.96180 | 37175 ft | 457 kts | 112° |
| 2026-04-27 20:33 | 59.29537 | 78.07877 | 37174 ft | 457 kts | 112° |
| 2026-04-27 20:34 | 59.27470 | 78.19635 | 37175 ft | 457 kts | 112° |
| 2026-04-27 20:34 | 59.25395 | 78.31370 | 37175 ft | 457 kts | 112° |
| 2026-04-27 20:35 | 59.23312 | 78.43074 | 37175 ft | 457 kts | 112° |
| 2026-04-27 20:35 | 59.21224 | 78.54731 | 37175 ft | 457 kts | 112° |
| 2026-04-27 20:36 | 59.19115 | 78.66441 | 37175 ft | 457 kts | 113° |
| 2026-04-27 20:36 | 59.17007 | 78.78095 | 37174 ft | 457 kts | 113° |
| 2026-04-27 20:37 | 59.14897 | 78.89681 | 37174 ft | 457 kts | 113° |
| 2026-04-27 20:37 | 59.12755 | 79.01352 | 37174 ft | 457 kts | 112° |
| 2026-04-27 20:38 | 59.10609 | 79.12964 | 37174 ft | 459 kts | 112° |
| 2026-04-27 20:38 | 59.08445 | 79.24597 | 37174 ft | 461 kts | 112° |
| 2026-04-27 20:39 | 59.06263 | 79.36290 | 37175 ft | 461 kts | 112° |
| 2026-04-27 20:39 | 59.04070 | 79.47952 | 37175 ft | 461 kts | 112° |
| 2026-04-27 20:40 | 59.01857 | 79.59650 | 37175 ft | 462 kts | 112° |
| 2026-04-27 20:40 | 58.99641 | 79.71307 | 37175 ft | 462 kts | 113° |
| 2026-04-27 20:41 | 58.97414 | 79.82964 | 37174 ft | 463 kts | 113° |
| 2026-04-27 20:41 | 58.95178 | 79.94580 | 37174 ft | 463 kts | 113° |
| 2026-04-27 20:42 | 58.92916 | 80.06254 | 37175 ft | 464 kts | 113° |
| 2026-04-27 20:42 | 58.90643 | 80.17907 | 37174 ft | 464 kts | 113° |
| 2026-04-27 20:43 | 58.88337 | 80.29582 | 37185 ft | 465 kts | 113° |
| 2026-04-27 20:43 | 58.86008 | 80.41213 | 37220 ft | 466 kts | 113° |
| 2026-04-27 20:44 | 58.83670 | 80.52827 | 37254 ft | 465 kts | 113° |
| 2026-04-27 20:44 | 58.81330 | 80.64421 | 37273 ft | 465 kts | 113° |
| 2026-04-27 20:45 | 58.78984 | 80.76026 | 37280 ft | 465 kts | 114° |
| 2026-04-27 20:45 | 58.76644 | 80.87536 | 37282 ft | 465 kts | 114° |
| 2026-04-27 20:46 | 58.74272 | 80.99114 | 37282 ft | 465 kts | 114° |
| 2026-04-27 20:46 | 58.71894 | 81.10648 | 37283 ft | 467 kts | 113° |
| 2026-04-27 20:47 | 58.69495 | 81.22233 | 37283 ft | 468 kts | 113° |
| 2026-04-27 20:47 | 58.67091 | 81.33823 | 37283 ft | 468 kts | 113° |
| 2026-04-27 20:48 | 58.65083 | 81.43472 | 37283 ft | 468 kts | 113° |
| 2026-04-27 20:48 | 58.62253 | 81.56995 | 37283 ft | 468 kts | 113° |
| 2026-04-27 20:49 | 58.59839 | 81.68471 | 37283 ft | 468 kts | 114° |
| 2026-04-27 20:49 | 58.57406 | 81.80001 | 37283 ft | 468 kts | 114° |
| 2026-04-27 20:50 | 58.54952 | 81.91540 | 37283 ft | 467 kts | 114° |
| 2026-04-27 20:50 | 58.52499 | 82.03008 | 37282 ft | 467 kts | 114° |
| 2026-04-27 20:51 | 58.50037 | 82.14441 | 37282 ft | 467 kts | 114° |
| 2026-04-27 20:51 | 58.47551 | 82.25932 | 37283 ft | 467 kts | 114° |
| 2026-04-27 20:52 | 58.45072 | 82.37330 | 37283 ft | 467 kts | 114° |
| 2026-04-27 20:52 | 58.42579 | 82.48724 | 37274 ft | 467 kts | 114° |
| 2026-04-27 20:53 | 58.40066 | 82.60152 | 37257 ft | 467 kts | 114° |
| 2026-04-27 20:53 | 58.37549 | 82.71549 | 37239 ft | 467 kts | 115° |
| 2026-04-27 20:54 | 58.33751 | 82.88627 | 37233 ft | 468 kts | 115° |
| 2026-04-27 20:55 | 58.31202 | 82.99979 | 37231 ft | 468 kts | 114° |
| 2026-04-27 20:55 | 58.28657 | 83.11277 | 37231 ft | 467 kts | 114° |
| 2026-04-27 20:56 | 58.26106 | 83.22563 | 37229 ft | 467 kts | 114° |
| 2026-04-27 20:56 | 58.23534 | 83.33877 | 37230 ft | 467 kts | 114° |
| 2026-04-27 20:57 | 58.20953 | 83.45171 | 37231 ft | 467 kts | 114° |
| 2026-04-27 20:57 | 58.18376 | 83.56383 | 37231 ft | 467 kts | 114° |
| 2026-04-27 20:58 | 58.15784 | 83.67608 | 37230 ft | 467 kts | 115° |
| 2026-04-27 20:58 | 58.13174 | 83.78875 | 37232 ft | 467 kts | 115° |
| 2026-04-27 20:59 | 58.10563 | 83.90076 | 37230 ft | 467 kts | 115° |
| 2026-04-27 20:59 | 58.07942 | 84.01250 | 37230 ft | 467 kts | 115° |
| 2026-04-27 21:00 | 58.05315 | 84.12388 | 37229 ft | 467 kts | 115° |
| 2026-04-27 21:00 | 58.02674 | 84.23528 | 37230 ft | 467 kts | 115° |
| 2026-04-27 21:01 | 58.00013 | 84.34691 | 37232 ft | 467 kts | 115° |
| 2026-04-27 21:01 | 57.97353 | 84.45795 | 37232 ft | 467 kts | 115° |
| 2026-04-27 21:02 | 57.94679 | 84.56895 | 37231 ft | 467 kts | 115° |
| 2026-04-27 21:02 | 57.91994 | 84.67992 | 37229 ft | 467 kts | 116° |
| 2026-04-27 21:03 | 57.89306 | 84.79062 | 37230 ft | 467 kts | 116° |
| 2026-04-27 21:03 | 57.86578 | 84.90112 | 37230 ft | 466 kts | 116° |
| 2026-04-27 21:04 | 57.83857 | 85.01114 | 37228 ft | 467 kts | 115° |
| 2026-04-27 21:04 | 57.81115 | 85.12162 | 37231 ft | 469 kts | 114° |
| 2026-04-27 21:05 | 57.78378 | 85.23164 | 37231 ft | 467 kts | 114° |
| 2026-04-27 21:05 | 57.75643 | 85.34154 | 37231 ft | 466 kts | 114° |
| 2026-04-27 21:06 | 57.72896 | 85.45121 | 37230 ft | 466 kts | 114° |
| 2026-04-27 21:06 | 57.70147 | 85.56038 | 37230 ft | 467 kts | 114° |
| 2026-04-27 21:07 | 57.67370 | 85.67011 | 37230 ft | 467 kts | 115° |
| 2026-04-27 21:07 | 57.64599 | 85.77933 | 37230 ft | 467 kts | 115° |
| 2026-04-27 21:08 | 57.61819 | 85.88822 | 37231 ft | 467 kts | 115° |
| 2026-04-27 21:08 | 57.59028 | 85.99691 | 37229 ft | 467 kts | 115° |
| 2026-04-27 21:09 | 57.56224 | 86.10550 | 37230 ft | 466 kts | 115° |
| 2026-04-27 21:09 | 57.53400 | 86.21436 | 37232 ft | 466 kts | 115° |
| 2026-04-27 21:10 | 57.50589 | 86.32214 | 37231 ft | 466 kts | 115° |
| 2026-04-27 21:10 | 57.47751 | 86.43051 | 37230 ft | 467 kts | 115° |
| 2026-04-27 21:11 | 57.44920 | 86.53807 | 37229 ft | 466 kts | 115° |
| 2026-04-27 21:11 | 57.42053 | 86.64642 | 37230 ft | 467 kts | 115° |
| 2026-04-27 21:12 | 57.39193 | 86.75427 | 37231 ft | 467 kts | 115° |
| 2026-04-27 21:12 | 57.36329 | 86.86170 | 37228 ft | 466 kts | 115° |
| 2026-04-27 21:13 | 57.33451 | 86.96904 | 37230 ft | 467 kts | 115° |
| 2026-04-27 21:13 | 57.30575 | 87.07572 | 37231 ft | 467 kts | 115° |
| 2026-04-27 21:14 | 57.27654 | 87.18356 | 37230 ft | 468 kts | 115° |
| 2026-04-27 21:14 | 57.24754 | 87.29018 | 37231 ft | 468 kts | 115° |
| 2026-04-27 21:15 | 57.21823 | 87.39738 | 37231 ft | 468 kts | 115° |
| 2026-04-27 21:15 | 57.18881 | 87.50444 | 37240 ft | 468 kts | 115° |
| 2026-04-27 21:16 | 57.15939 | 87.61105 | 37249 ft | 468 kts | 115° |
| 2026-04-27 21:16 | 57.12999 | 87.71722 | 37253 ft | 469 kts | 116° |
| 2026-04-27 21:17 | 57.10047 | 87.82343 | 37253 ft | 468 kts | 116° |
| 2026-04-27 21:17 | 57.07062 | 87.93013 | 37254 ft | 469 kts | 116° |
| 2026-04-27 21:18 | 57.04075 | 88.03636 | 37256 ft | 469 kts | 116° |
| 2026-04-27 21:18 | 57.01079 | 88.14246 | 37256 ft | 470 kts | 116° |
| 2026-04-27 21:19 | 56.98080 | 88.24813 | 37256 ft | 471 kts | 116° |
| 2026-04-27 21:19 | 56.95043 | 88.35470 | 37257 ft | 470 kts | 116° |
| 2026-04-27 21:20 | 56.90652 | 88.51397 | 37258 ft | 470 kts | 111° |
| 2026-04-27 21:20 | 56.88155 | 88.62376 | 37256 ft | 469 kts | 110° |
| 2026-04-27 21:21 | 56.85655 | 88.73420 | 37259 ft | 470 kts | 111° |
| 2026-04-27 21:21 | 56.83164 | 88.84418 | 37256 ft | 469 kts | 111° |
| 2026-04-27 21:22 | 56.80672 | 88.95348 | 37258 ft | 468 kts | 110° |
| 2026-04-27 21:22 | 56.78173 | 89.06257 | 37258 ft | 465 kts | 109° |
| 2026-04-27 21:23 | 56.75682 | 89.17113 | 37247 ft | 465 kts | 109° |
| 2026-04-27 21:23 | 56.73195 | 89.27904 | 37223 ft | 465 kts | 109° |
| 2026-04-27 21:24 | 56.70692 | 89.38681 | 37195 ft | 464 kts | 109° |
| 2026-04-27 21:24 | 56.68171 | 89.49477 | 37183 ft | 465 kts | 109° |
| 2026-04-27 21:25 | 56.65643 | 89.60260 | 37177 ft | 464 kts | 109° |
| 2026-04-27 21:25 | 56.63112 | 89.71008 | 37175 ft | 465 kts | 110° |
| 2026-04-27 21:26 | 56.60561 | 89.81798 | 37175 ft | 465 kts | 110° |
| 2026-04-27 21:26 | 56.58006 | 89.92546 | 37176 ft | 465 kts | 110° |
| 2026-04-27 21:27 | 56.56724 | 89.97911 | 36925 ft | 467 kts | 110° |
| 2026-04-27 21:27 | 56.55444 | 90.03258 | 36306 ft | 467 kts | 110° |
| 2026-04-27 21:27 | 56.54153 | 90.08635 | 35597 ft | 468 kts | 110° |
| 2026-04-27 21:27 | 56.52856 | 90.14030 | 34864 ft | 468 kts | 110° |
| 2026-04-27 21:28 | 56.51556 | 90.19407 | 34097 ft | 469 kts | 110° |
| 2026-04-27 21:28 | 56.50265 | 90.24741 | 33339 ft | 468 kts | 110° |
| 2026-04-27 21:28 | 56.48959 | 90.30134 | 32609 ft | 467 kts | 110° |
| 2026-04-27 21:28 | 56.47669 | 90.35438 | 31851 ft | 467 kts | 110° |
| 2026-04-27 21:29 | 56.46354 | 90.40840 | 31079 ft | 466 kts | 111° |
| 2026-04-27 21:29 | 56.45050 | 90.46175 | 30288 ft | 465 kts | 111° |
| 2026-04-27 21:29 | 56.43748 | 90.51491 | 29447 ft | 466 kts | 111° |
| 2026-04-27 21:29 | 56.42446 | 90.56789 | 28604 ft | 466 kts | 111° |
| 2026-04-27 21:30 | 56.41141 | 90.62094 | 27916 ft | 462 kts | 111° |
| 2026-04-27 21:30 | 56.39856 | 90.67310 | 27418 ft | 454 kts | 112° |
| 2026-04-27 21:30 | 56.38576 | 90.72498 | 26902 ft | 448 kts | 112° |
| 2026-04-27 21:30 | 56.37311 | 90.77610 | 26374 ft | 443 kts | 112° |
| 2026-04-27 21:31 | 56.36068 | 90.82617 | 25858 ft | 438 kts | 112° |
| 2026-04-27 21:31 | 56.34833 | 90.87579 | 25333 ft | 434 kts | 112° |
| 2026-04-27 21:31 | 56.33601 | 90.92520 | 24815 ft | 430 kts | 112° |
| 2026-04-27 21:31 | 56.32382 | 90.97397 | 24295 ft | 426 kts | 112° |
| 2026-04-27 21:32 | 56.31181 | 91.02187 | 23780 ft | 422 kts | 111° |
| 2026-04-27 21:32 | 56.29982 | 91.06982 | 23255 ft | 418 kts | 110° |
| 2026-04-27 21:32 | 56.28959 | 91.11789 | 22740 ft | 413 kts | 105° |
| 2026-04-27 21:32 | 56.28185 | 91.16712 | 22223 ft | 408 kts | 100° |
| 2026-04-27 21:33 | 56.27666 | 91.21690 | 21721 ft | 402 kts | 96° |
| 2026-04-27 21:33 | 56.27260 | 91.26664 | 21217 ft | 398 kts | 95° |
| 2026-04-27 21:33 | 56.26878 | 91.31525 | 20712 ft | 395 kts | 95° |
| 2026-04-27 21:33 | 56.26491 | 91.36410 | 20203 ft | 392 kts | 95° |
| 2026-04-27 21:34 | 56.26105 | 91.41198 | 19697 ft | 389 kts | 95° |
| 2026-04-27 21:34 | 56.25715 | 91.45979 | 19191 ft | 386 kts | 95° |
| 2026-04-27 21:34 | 56.25324 | 91.50712 | 18691 ft | 383 kts | 95° |
| 2026-04-27 21:34 | 56.25040 | 91.55444 | 18154 ft | 378 kts | 88° |
| 2026-04-27 21:35 | 56.25087 | 91.60126 | 17632 ft | 375 kts | 84° |
| 2026-04-27 21:35 | 56.25212 | 91.64814 | 17109 ft | 372 kts | 84° |
| 2026-04-27 21:35 | 56.25328 | 91.69422 | 16597 ft | 370 kts | 85° |
| 2026-04-27 21:35 | 56.25425 | 91.73988 | 16090 ft | 367 kts | 86° |
| 2026-04-27 21:36 | 56.25508 | 91.78554 | 15585 ft | 364 kts | 86° |
| 2026-04-27 21:36 | 56.25579 | 91.83095 | 15082 ft | 362 kts | 86° |
| 2026-04-27 21:36 | 56.25644 | 91.87550 | 14587 ft | 359 kts | 86° |
| 2026-04-27 21:36 | 56.25703 | 91.92033 | 14087 ft | 357 kts | 86° |
| 2026-04-27 21:37 | 56.25760 | 91.96462 | 13592 ft | 354 kts | 86° |
| 2026-04-27 21:37 | 56.25812 | 92.00861 | 13099 ft | 351 kts | 87° |
| 2026-04-27 21:37 | 56.25830 | 92.02342 | 12933 ft | 351 kts | 87° |
| 2026-04-27 21:38 | 56.25959 | 92.14001 | 11616 ft | 344 kts | 87° |
| 2026-04-27 21:38 | 56.26003 | 92.18278 | 11120 ft | 342 kts | 87° |
| 2026-04-27 21:38 | 56.26046 | 92.22533 | 10718 ft | 336 kts | 87° |
| 2026-04-27 21:38 | 56.26084 | 92.26612 | 10574 ft | 322 kts | 87° |
| 2026-04-27 21:39 | 56.26120 | 92.30586 | 10445 ft | 309 kts | 87° |
| 2026-04-27 21:39 | 56.26152 | 92.34359 | 10338 ft | 295 kts | 86° |
| 2026-04-27 21:39 | 56.26184 | 92.37974 | 10250 ft | 282 kts | 86° |
| 2026-04-27 21:39 | 56.26212 | 92.41407 | 10095 ft | 273 kts | 86° |
| 2026-04-27 21:40 | 56.26242 | 92.44823 | 9757 ft | 272 kts | 86° |
| 2026-04-27 21:40 | 56.26270 | 92.48183 | 9441 ft | 270 kts | 86° |
| 2026-04-27 21:40 | 56.26296 | 92.51565 | 9127 ft | 268 kts | 86° |
| 2026-04-27 21:40 | 56.26320 | 92.54895 | 8822 ft | 266 kts | 86° |
| 2026-04-27 21:41 | 56.26344 | 92.58218 | 8519 ft | 264 kts | 86° |
| 2026-04-27 21:41 | 56.26366 | 92.61491 | 8223 ft | 263 kts | 86° |
| 2026-04-27 21:41 | 56.26383 | 92.64759 | 7928 ft | 261 kts | 89° |
| 2026-04-27 21:41 | 56.26166 | 92.68005 | 7629 ft | 261 kts | 102° |
| 2026-04-27 21:42 | 56.25593 | 92.71104 | 7341 ft | 260 kts | 111° |
| 2026-04-27 21:42 | 56.24884 | 92.74080 | 7056 ft | 259 kts | 112° |
| 2026-04-27 21:42 | 56.24157 | 92.77022 | 6772 ft | 258 kts | 113° |
| 2026-04-27 21:42 | 56.23443 | 92.79924 | 6493 ft | 256 kts | 112° |
| 2026-04-27 21:43 | 56.22731 | 92.82848 | 6212 ft | 255 kts | 112° |
| 2026-04-27 21:43 | 56.22023 | 92.85774 | 5932 ft | 253 kts | 112° |
| 2026-04-27 21:43 | 56.21325 | 92.88661 | 5657 ft | 252 kts | 112° |
| 2026-04-27 21:43 | 56.20514 | 92.91384 | 5476 ft | 247 kts | 131° |
| 2026-04-27 21:44 | 56.19118 | 92.93059 | 5444 ft | 242 kts | 165° |
| 2026-04-27 21:44 | 56.17458 | 92.93170 | 5182 ft | 245 kts | 197° |
| 2026-04-27 21:44 | 56.15893 | 92.92052 | 4942 ft | 243 kts | 206° |
| 2026-04-27 21:44 | 56.14360 | 92.90769 | 4675 ft | 241 kts | 206° |
| 2026-04-27 21:45 | 56.12836 | 92.89516 | 4417 ft | 240 kts | 205° |
| 2026-04-27 21:45 | 56.11324 | 92.88308 | 4163 ft | 239 kts | 205° |
| 2026-04-27 21:45 | 56.09898 | 92.86865 | 3987 ft | 231 kts | 227° |
| 2026-04-27 21:45 | 56.09230 | 92.84433 | 3928 ft | 214 kts | 268° |
| 2026-04-27 21:46 | 56.09441 | 92.81826 | 3654 ft | 211 kts | 290° |
| 2026-04-27 21:46 | 56.10025 | 92.79455 | 3435 ft | 207 kts | 297° |
| 2026-04-27 21:46 | 56.10661 | 92.77177 | 3237 ft | 202 kts | 296° |
| 2026-04-27 21:46 | 56.11237 | 92.74975 | 3164 ft | 191 kts | 295° |
| 2026-04-27 21:47 | 56.11755 | 92.72845 | 3311 ft | 176 kts | 294° |
| 2026-04-27 21:47 | 56.12208 | 92.70920 | 3156 ft | 162 kts | 293° |
| 2026-04-27 21:47 | 56.12619 | 92.69147 | 2979 ft | 145 kts | 293° |
| 2026-04-27 21:47 | 56.12988 | 92.67562 | 2762 ft | 134 kts | 293° |
| 2026-04-27 21:48 | 56.13347 | 92.66018 | 2593 ft | 134 kts | 292° |
| 2026-04-27 21:48 | 56.13702 | 92.64481 | 2427 ft | 133 kts | 293° |
| 2026-04-27 21:48 | 56.14057 | 92.62955 | 2252 ft | 133 kts | 293° |
| 2026-04-27 21:48 | 56.14418 | 92.61426 | 2049 ft | 132 kts | 294° |
| 2026-04-27 21:49 | 56.14778 | 92.59927 | 1868 ft | 132 kts | 294° |
| 2026-04-27 21:49 | 56.15136 | 92.58403 | 1721 ft | 132 kts | 293° |
| 2026-04-27 21:49 | 56.15492 | 92.56889 | 1549 ft | 132 kts | 294° |
| 2026-04-27 21:49 | 56.15850 | 92.55384 | 1360 ft | 131 kts | 293° |
| 2026-04-27 21:50 | 56.16204 | 92.53883 | 1192 ft | 131 kts | 293° |
| 2026-04-27 21:50 | 56.16564 | 92.52381 | 1014 ft | 129 kts | 293° |
| 2026-04-27 21:50 | 56.16900 | 92.50970 | 948 ft | 110 kts | 293° |
| 2026-04-27 21:50 | 56.17133 | 92.49986 | 948 ft | 61 kts | 294° |
| 2026-04-27 21:51 | 56.17251 | 92.49493 | 948 ft | 36 kts | 294° |
| 2026-04-27 21:51 | 56.17343 | 92.49107 | 948 ft | 27 kts | 293° |
| 2026-04-27 21:51 | 56.17405 | 92.48864 | 948 ft | 18 kts | 301° |
| 2026-04-27 21:51 | 56.17481 | 92.48713 | 948 ft | 7 kts | 325° |
| 2026-04-27 21:52 | 56.17512 | 92.48673 | 948 ft | 5 kts | 324° |
| 2026-04-27 21:52 | 56.17547 | 92.48628 | 948 ft | 6 kts | 324° |
| 2026-04-27 21:52 | 56.17589 | 92.48573 | 948 ft | 8 kts | 324° |
| 2026-04-27 21:52 | 56.17637 | 92.48509 | 948 ft | 9 kts | 324° |
| 2026-04-27 21:53 | 56.17691 | 92.48440 | 948 ft | 10 kts | 324° |
| 2026-04-27 21:53 | 56.17732 | 92.48394 | 948 ft | 5 kts | 340° |
| 2026-04-27 21:53 | 56.17771 | 92.48398 | 948 ft | 6 kts | 19° |
| 2026-04-27 21:53 | 56.17816 | 92.48434 | 948 ft | 7 kts | 24° |
| 2026-04-27 21:54 | 56.17869 | 92.48475 | 948 ft | 8 kts | 24° |
| 2026-04-27 21:54 | 56.17910 | 92.48507 | 948 ft | 5 kts | 24° |
| 2026-04-27 21:54 | 56.17946 | 92.48535 | 948 ft | 2 kts | 24° |
| 2026-04-27 21:54 | 56.17953 | 92.48540 | 948 ft | 0 kts | 24° |